createdAt,value
2022-08-28T00:02:35.869Z,99853
2022-08-28T00:07:35.784Z,99859
2022-08-28T00:12:35.805Z,99859
2022-08-28T00:17:35.742Z,99862
2022-08-28T00:22:35.785Z,99848
2022-08-28T00:27:35.751Z,99843
2022-08-28T00:32:35.806Z,99839
2022-08-28T00:37:35.860Z,99828
2022-08-28T00:42:35.780Z,99824
2022-08-28T00:47:35.748Z,99836
2022-08-28T00:52:35.815Z,99842
2022-08-28T00:57:35.762Z,99856
2022-08-28T01:02:35.862Z,99870
2022-08-28T01:07:35.846Z,99882
2022-08-28T01:12:35.816Z,99870
2022-08-28T01:17:35.776Z,99870
2022-08-28T01:22:35.811Z,99887
2022-08-28T01:27:35.772Z,99891
2022-08-28T01:32:35.815Z,99874
2022-08-28T01:37:35.814Z,99879
2022-08-28T01:42:35.833Z,99887
2022-08-28T01:47:35.782Z,99896
2022-08-28T01:52:35.835Z,99896
2022-08-28T01:57:35.799Z,99889
2022-08-28T02:02:35.829Z,99889
2022-08-28T02:07:35.836Z,99880
2022-08-28T02:12:35.833Z,99864
2022-08-28T02:17:35.808Z,99856
2022-08-28T02:22:35.831Z,99855
2022-08-28T02:27:35.806Z,99827
2022-08-28T02:32:35.854Z,99833
2022-08-28T02:37:35.835Z,99822
2022-08-28T02:42:35.857Z,99836
2022-08-28T02:47:35.831Z,99844
2022-08-28T02:52:35.851Z,99854
2022-08-28T02:57:35.830Z,99854
2022-08-28T03:02:35.893Z,99841
2022-08-28T03:07:35.872Z,99841
2022-08-28T03:12:35.880Z,99896
2022-08-28T03:17:35.834Z,99906
2022-08-28T03:22:35.918Z,99887
2022-08-28T03:27:35.840Z,99870
2022-08-28T03:32:35.875Z,99891
2022-08-28T03:37:35.878Z,99874
2022-08-28T03:42:35.885Z,99884
2022-08-28T03:47:35.884Z,99889
2022-08-28T03:52:35.917Z,99889
2022-08-28T03:57:35.903Z,99896
2022-08-28T04:02:36.055Z,99896
2022-08-28T04:07:35.881Z,99896
2022-08-28T04:12:35.907Z,99887
2022-08-28T04:17:35.873Z,99893
2022-08-28T04:22:35.925Z,99881
2022-08-28T04:27:35.873Z,99890
2022-08-28T04:32:35.912Z,99892
2022-08-28T04:37:35.940Z,99889
2022-08-28T04:42:35.924Z,99894
2022-08-28T04:47:35.906Z,99893
2022-08-28T04:52:35.944Z,99890
2022-08-28T04:57:36.509Z,99900
2022-08-28T05:02:36.014Z,99905
2022-08-28T05:07:35.941Z,99912
2022-08-28T05:12:35.926Z,99915
2022-08-28T05:17:35.910Z,99920
2022-08-28T05:22:35.958Z,99916
2022-08-28T05:27:35.912Z,99916
2022-08-28T05:32:35.972Z,99938
2022-08-28T05:37:36.083Z,99938
2022-08-28T05:42:38.857Z,99934
2022-08-28T05:47:35.931Z,99933
2022-08-28T05:52:35.984Z,99925
2022-08-28T05:57:35.919Z,99924
2022-08-28T06:02:35.980Z,99919
2022-08-28T06:07:35.986Z,99919
2022-08-28T06:12:36.030Z,99912
2022-08-28T06:17:35.952Z,99911
2022-08-28T06:22:35.988Z,99907
2022-08-28T06:27:35.960Z,99904
2022-08-28T06:32:35.974Z,99904
2022-08-28T06:37:35.996Z,99903
2022-08-28T06:42:36.033Z,99910
2022-08-28T06:47:35.966Z,99914
2022-08-28T06:52:36.096Z,99902
2022-08-28T06:57:35.964Z,99905
2022-08-28T07:02:36.020Z,99920
2022-08-28T07:07:36.009Z,99921
2022-08-28T07:12:36.032Z,99931
2022-08-28T07:17:35.969Z,99937
2022-08-28T07:22:36.025Z,99948
2022-08-28T07:27:35.986Z,99947
2022-08-28T07:32:36.036Z,99952
2022-08-28T07:37:36.081Z,99947
2022-08-28T07:42:36.108Z,99952
2022-08-28T07:47:36.000Z,99951
2022-08-28T07:52:36.077Z,99951
2022-08-28T07:57:36.001Z,99951
2022-08-28T08:02:36.055Z,99955
2022-08-28T08:07:36.047Z,99951
2022-08-28T08:12:36.145Z,99951
2022-08-28T08:17:36.013Z,99957
2022-08-28T08:22:36.050Z,99959
2022-08-28T08:27:39.850Z,99969
2022-08-28T08:32:36.062Z,99976
2022-08-28T08:37:36.049Z,99985
2022-08-28T08:42:36.044Z,99985
2022-08-28T08:47:36.011Z,99989
2022-08-28T08:52:36.058Z,99981
2022-08-28T08:57:36.054Z,99981
2022-08-28T09:02:36.072Z,99977
2022-08-28T09:07:36.060Z,99979
2022-08-28T09:12:36.077Z,99979
2022-08-28T09:17:36.039Z,99977
2022-08-28T09:22:36.091Z,99986
2022-08-28T09:27:36.043Z,99983
2022-08-28T09:32:36.087Z,99978
2022-08-28T09:37:36.093Z,99984
2022-08-28T09:42:36.103Z,99984
2022-08-28T09:47:36.049Z,99983
2022-08-28T09:52:36.112Z,99984
2022-08-28T09:57:36.078Z,99984
2022-08-28T10:02:36.108Z,99977
2022-08-28T10:07:36.113Z,99978
2022-08-28T10:12:36.107Z,99975
2022-08-28T10:22:36.136Z,99966
2022-08-28T10:27:36.074Z,99966
2022-08-28T10:32:36.133Z,99963
2022-08-28T10:37:36.141Z,99963
2022-08-28T10:42:36.557Z,99959
2022-08-28T10:47:36.137Z,99959
2022-08-28T10:57:39.211Z,99949
2022-08-28T11:02:36.273Z,99947
2022-08-28T11:07:36.143Z,99943
2022-08-28T11:12:36.238Z,99950
2022-08-28T11:17:36.179Z,99947
2022-08-28T11:22:36.125Z,99944
2022-08-28T11:27:36.194Z,99943
2022-08-28T11:32:36.115Z,99938
2022-08-28T11:37:36.168Z,99940
2022-08-28T11:42:36.186Z,99939
2022-08-28T11:47:36.233Z,99934
2022-08-28T11:52:36.180Z,99932
2022-08-28T11:57:36.173Z,99929
2022-08-28T12:02:36.345Z,99923
2022-08-28T12:07:36.182Z,99920
2022-08-28T12:12:36.200Z,99917
2022-08-28T12:17:36.169Z,99911
2022-08-28T12:22:36.133Z,99908
2022-08-28T12:27:36.268Z,99912
2022-08-28T12:32:36.191Z,99912
2022-08-28T12:37:39.761Z,99912
2022-08-28T12:42:36.198Z,99919
2022-08-28T12:47:36.229Z,99915
2022-08-28T12:52:36.155Z,99912
2022-08-28T12:57:36.217Z,99910
2022-08-28T13:02:36.280Z,99908
2022-08-28T13:12:54.854Z,99898
2022-08-28T13:17:36.179Z,99893
2022-08-28T13:22:36.206Z,99891
2022-08-28T13:27:36.237Z,99891
2022-08-28T13:32:36.228Z,99889
2022-08-28T13:37:36.209Z,99883
2022-08-28T13:42:36.241Z,99883
2022-08-28T13:47:36.194Z,99877
2022-08-28T13:52:36.250Z,99873
2022-08-28T13:57:36.269Z,99867
2022-08-28T14:02:36.324Z,99865
2022-08-28T14:07:36.204Z,99861
2022-08-28T14:12:36.245Z,99859
2022-08-28T14:17:36.231Z,99859
2022-08-28T14:22:36.243Z,99854
2022-08-28T14:27:36.242Z,99851
2022-08-28T14:32:36.256Z,99856
2022-08-28T14:37:36.219Z,99858
2022-08-28T14:42:36.248Z,99858
2022-08-28T14:47:36.229Z,99864
2022-08-28T14:52:36.246Z,99864
2022-08-28T14:57:36.277Z,99864
2022-08-28T15:02:36.285Z,99862
2022-08-28T15:07:36.244Z,99864
2022-08-28T15:12:36.281Z,99864
2022-08-28T15:17:36.243Z,99864
2022-08-28T15:22:36.329Z,99870
2022-08-28T15:27:36.294Z,99866
2022-08-28T15:32:36.303Z,99873
2022-08-28T15:37:36.260Z,99873
2022-08-28T15:42:36.403Z,99874
2022-08-28T15:47:36.256Z,99877
2022-08-28T15:52:36.370Z,99877
2022-08-28T15:57:36.310Z,99883
2022-08-28T16:02:36.316Z,99884
2022-08-28T16:12:36.314Z,99872
2022-08-28T16:17:36.280Z,99870
2022-08-28T16:22:36.356Z,99872
2022-08-28T16:27:36.341Z,99866
2022-08-28T16:32:36.329Z,99866
2022-08-28T16:37:39.938Z,99873
2022-08-28T16:42:36.347Z,99875
2022-08-28T16:47:36.279Z,99887
2022-08-28T16:52:36.323Z,99887
2022-08-28T16:57:36.355Z,99902
2022-08-28T17:02:36.421Z,99912
2022-08-28T17:07:36.368Z,99913
2022-08-28T17:12:36.403Z,99923
2022-08-28T17:17:36.362Z,99927
2022-08-28T17:22:36.315Z,99927
2022-08-28T17:27:36.479Z,99936
2022-08-28T17:32:36.410Z,99941
2022-08-28T17:37:36.386Z,99941
2022-08-28T17:42:36.519Z,99941
2022-08-28T17:47:36.379Z,99943
2022-08-28T17:52:36.461Z,99959
2022-08-28T17:57:36.518Z,99976
2022-08-28T18:02:36.497Z,99986
2022-08-28T18:07:36.572Z,99988
2022-08-28T18:12:36.533Z,99991
2022-08-28T18:17:36.594Z,99994
2022-08-28T18:22:36.556Z,99989
2022-08-28T18:27:36.595Z,99992
2022-08-28T18:32:36.521Z,99983
2022-08-28T18:37:36.600Z,99992
2022-08-28T18:42:36.589Z,99991
2022-08-28T18:47:36.570Z,99999
2022-08-28T18:52:36.544Z,100014
2022-08-28T18:57:36.658Z,100022
2022-08-28T19:02:41.228Z,100020
2022-08-28T19:07:36.621Z,100019
2022-08-28T19:12:36.671Z,100015
2022-08-28T19:17:36.594Z,100015
2022-08-28T19:22:36.578Z,100018
2022-08-28T19:27:36.570Z,100030
2022-08-28T19:32:36.589Z,100034
2022-08-28T19:37:42.110Z,100033
2022-08-28T19:42:36.638Z,100038
2022-08-28T19:47:36.620Z,100046
2022-08-28T19:52:36.602Z,100048
2022-08-28T19:57:36.691Z,100057
2022-08-28T20:02:36.687Z,100061
2022-08-28T20:12:36.691Z,100081
2022-08-28T20:17:43.689Z,100074
2022-08-28T20:22:36.654Z,100072
2022-08-28T20:27:36.454Z,100079
2022-08-28T20:32:36.455Z,100079
2022-08-28T20:37:45.449Z,100080
2022-08-28T20:42:36.493Z,100080
2022-08-28T20:47:36.429Z,100078
2022-08-28T20:52:36.464Z,100085
2022-08-28T20:57:36.463Z,100085
2022-08-28T21:02:36.462Z,100075
2022-08-28T21:07:36.443Z,100067
2022-08-28T21:12:36.515Z,100080
2022-08-28T21:17:36.448Z,100082
2022-08-28T21:22:36.480Z,100087
2022-08-28T21:27:36.487Z,100092
2022-08-28T21:32:36.487Z,100096
2022-08-28T21:37:36.457Z,100097
2022-08-28T21:42:36.479Z,100099
2022-08-28T21:47:36.461Z,100103
2022-08-28T21:52:36.485Z,100097
2022-08-28T21:57:36.520Z,100100
2022-08-28T22:02:36.684Z,100109
2022-08-28T22:07:36.470Z,100111
2022-08-28T22:12:36.594Z,100100
2022-08-28T22:17:36.479Z,100099
2022-08-28T22:22:36.531Z,100098
2022-08-28T22:27:36.530Z,100102
2022-08-28T22:32:36.513Z,100102
2022-08-28T22:37:36.501Z,100104
2022-08-28T22:42:36.533Z,100103
2022-08-28T22:47:36.498Z,100102
2022-08-28T22:52:36.559Z,100103
2022-08-28T22:57:36.521Z,100101
2022-08-28T23:02:36.597Z,100097
2022-08-28T23:07:36.515Z,100099
2022-08-28T23:12:36.550Z,100106
2022-08-28T23:17:36.519Z,100105
2022-08-28T23:22:36.559Z,100103
2022-08-28T23:27:36.887Z,100107
2022-08-28T23:32:36.543Z,100108
2022-08-28T23:37:36.523Z,100112
2022-08-28T23:42:36.584Z,100112
2022-08-28T23:47:40.386Z,100121
2022-08-28T23:52:36.549Z,100117
2022-08-28T23:57:36.570Z,100117
